sensor_id;sensor_type;location;lat;lon;timestamp;pressure;altitude;pressure_sealevel;temperature;humidity
5996;BME280;3026;53.612;7.278;2023-06-04T00:00:25;102335.41;;;11.39;100.00
5996;BME280;3026;53.612;7.278;2023-06-04T00:02:52;102324.31;;;11.31;100.00
5996;BME280;3026;53.612;7.278;2023-06-04T00:05:20;102330.78;;;11.30;100.00
5996;BME280;3026;53.612;7.278;2023-06-04T00:07:50;102331.66;;;11.30;100.00
5996;BME280;3026;53.612;7.278;2023-06-04T00:10:17;102329.06;;;11.29;100.00
5996;BME280;3026;53.612;7.278;2023-06-04T00:12:44;102328.34;;;11.27;100.00
5996;BME280;3026;53.612;7.278;2023-06-04T00:15:12;102326.63;;;11.26;100.00
5996;BME280;3026;53.612;7.278;2023-06-04T00:17:39;102316.97;;;11.22;100.00
5996;BME280;3026;53.612;7.278;2023-06-04T00:20:07;102317.97;;;11.21;100.00
5996;BME280;3026;53.612;7.278;2023-06-04T00:22:36;102314.38;;;11.20;100.00
5996;BME280;3026;53.612;7.278;2023-06-04T00:25:03;102313.50;;;11.20;100.00
5996;BME280;3026;53.612;7.278;2023-06-04T00:27:30;102314.53;;;11.19;100.00
5996;BME280;3026;53.612;7.278;2023-06-04T00:29:57;102309.34;;;11.16;100.00
5996;BME280;3026;53.612;7.278;2023-06-04T00:32:24;102298.72;;;11.13;100.00
5996;BME280;3026;53.612;7.278;2023-06-04T00:34:51;102304.44;;;11.09;100.00
5996;BME280;3026;53.612;7.278;2023-06-04T00:37:18;102313.63;;;11.08;100.00
5996;BME280;3026;53.612;7.278;2023-06-04T00:39:47;102314.94;;;11.04;100.00
5996;BME280;3026;53.612;7.278;2023-06-04T00:42:14;102315.06;;;11.03;100.00
5996;BME280;3026;53.612;7.278;2023-06-04T00:44:40;102307.03;;;11.01;100.00
5996;BME280;3026;53.612;7.278;2023-06-04T00:47:10;102302.56;;;11.00;100.00
5996;BME280;3026;53.612;7.278;2023-06-04T00:49:37;102307.28;;;10.98;100.00
5996;BME280;3026;53.612;7.278;2023-06-04T00:52:04;102306.56;;;10.96;100.00
5996;BME280;3026;53.612;7.278;2023-06-04T00:54:31;102312.16;;;10.95;100.00
5996;BME280;3026;53.612;7.278;2023-06-04T00:57:00;102313.31;;;10.92;100.00
5996;BME280;3026;53.612;7.278;2023-06-04T00:59:28;102315.31;;;10.90;100.00
5996;BME280;3026;53.612;7.278;2023-06-04T01:02:00;102304.94;;;10.84;100.00
5996;BME280;3026;53.612;7.278;2023-06-04T01:04:32;102312.84;;;10.87;100.00
5996;BME280;3026;53.612;7.278;2023-06-04T01:07:02;102310.41;;;10.84;100.00
5996;BME280;3026;53.612;7.278;2023-06-04T01:09:30;102303.22;;;10.83;100.00
5996;BME280;3026;53.612;7.278;2023-06-04T01:11:57;102304.38;;;10.80;100.00
5996;BME280;3026;53.612;7.278;2023-06-04T01:14:26;102310.97;;;10.78;100.00
5996;BME280;3026;53.612;7.278;2023-06-04T01:16:56;102309.25;;;10.77;100.00
5996;BME280;3026;53.612;7.278;2023-06-04T01:22:43;102308.78;;;10.72;100.00
5996;BME280;3026;53.612;7.278;2023-06-04T01:25:13;102303.34;;;10.72;100.00
5996;BME280;3026;53.612;7.278;2023-06-04T01:27:47;102306.19;;;10.70;100.00
5996;BME280;3026;53.612;7.278;2023-06-04T01:30:17;102302.59;;;10.70;100.00
5996;BME280;3026;53.612;7.278;2023-06-04T01:32:44;102308.06;;;10.70;100.00
5996;BME280;3026;53.612;7.278;2023-06-04T01:35:12;102304.63;;;10.68;100.00
5996;BME280;3026;53.612;7.278;2023-06-04T01:37:39;102304.88;;;10.65;100.00
5996;BME280;3026;53.612;7.278;2023-06-04T01:40:07;102302.44;;;10.62;100.00
5996;BME280;3026;53.612;7.278;2023-06-04T01:42:34;102297.97;;;10.61;100.00
5996;BME280;3026;53.612;7.278;2023-06-04T01:45:01;102303.72;;;10.58;100.00
5996;BME280;3026;53.612;7.278;2023-06-04T01:47:30;102302.00;;;10.57;100.00
5996;BME280;3026;53.612;7.278;2023-06-04T01:49:56;102300.25;;;10.56;100.00
5996;BME280;3026;53.612;7.278;2023-06-04T01:52:23;102305.00;;;10.54;100.00
5996;BME280;3026;53.612;7.278;2023-06-04T01:54:50;102307.72;;;10.54;100.00
5996;BME280;3026;53.612;7.278;2023-06-04T01:57:18;102305.00;;;10.54;100.00
5996;BME280;3026;53.612;7.278;2023-06-04T01:59:44;102307.72;;;10.54;100.00
5996;BME280;3026;53.612;7.278;2023-06-04T02:02:12;102312.28;;;10.53;100.00
5996;BME280;3026;53.612;7.278;2023-06-04T02:04:40;102307.97;;;10.50;100.00
5996;BME280;3026;53.612;7.278;2023-06-04T02:07:08;102312.56;;;10.50;100.00
5996;BME280;3026;53.612;7.278;2023-06-04T02:09:35;102306.53;;;10.46;100.00
5996;BME280;3026;53.612;7.278;2023-06-04T02:12:02;102303.94;;;10.45;100.00
5996;BME280;3026;53.612;7.278;2023-06-04T02:14:29;102310.53;;;10.42;100.00
5996;BME280;3026;53.612;7.278;2023-06-04T02:16:56;102304.22;;;10.42;100.00
5996;BME280;3026;53.612;7.278;2023-06-04T02:19:23;102305.09;;;10.42;100.00
5996;BME280;3026;53.612;7.278;2023-06-04T02:21:53;102312.25;;;10.43;100.00
5996;BME280;3026;53.612;7.278;2023-06-04T02:24:20;102313.38;;;10.41;100.00
5996;BME280;3026;53.612;7.278;2023-06-04T02:26:46;102300.75;;;10.40;100.00
5996;BME280;3026;53.612;7.278;2023-06-04T02:29:13;102307.34;;;10.37;100.00
5996;BME280;3026;53.612;7.278;2023-06-04T02:31:40;102300.16;;;10.36;100.00
5996;BME280;3026;53.612;7.278;2023-06-04T02:34:07;102302.16;;;10.34;100.00
5996;BME280;3026;53.612;7.278;2023-06-04T02:36:34;102300.44;;;10.33;100.00
5996;BME280;3026;53.612;7.278;2023-06-04T02:39:02;102307.91;;;10.31;100.00
5996;BME280;3026;53.612;7.278;2023-06-04T02:41:29;102305.28;;;10.30;100.00
5996;BME280;3026;53.612;7.278;2023-06-04T02:43:56;102309.16;;;10.27;100.00
5996;BME280;3026;53.612;7.278;2023-06-04T02:46:22;102310.16;;;10.26;100.00
5996;BME280;3026;53.612;7.278;2023-06-04T02:48:49;102306.69;;;10.24;100.00
5996;BME280;3026;53.612;7.278;2023-06-04T02:51:16;102317.59;;;10.24;100.00
5996;BME280;3026;53.612;7.278;2023-06-04T02:53:42;102312.41;;;10.21;100.00
5996;BME280;3026;53.612;7.278;2023-06-04T02:56:12;102310.66;;;10.20;100.00
5996;BME280;3026;53.612;7.278;2023-06-04T02:58:48;102312.63;;;10.18;100.00
5996;BME280;3026;53.612;7.278;2023-06-04T03:01:17;102317.66;;;10.13;100.00
5996;BME280;3026;53.612;7.278;2023-06-04T03:03:45;102315.19;;;10.10;100.00
5996;BME280;3026;53.612;7.278;2023-06-04T03:06:12;102317.19;;;10.08;100.00
5996;BME280;3026;53.612;7.278;2023-06-04T03:08:39;102315.44;;;10.07;100.00
5996;BME280;3026;53.612;7.278;2023-06-04T03:11:06;102321.88;;;10.06;100.00
5996;BME280;3026;53.612;7.278;2023-06-04T03:13:35;102317.44;;;10.05;100.00
5996;BME280;3026;53.612;7.278;2023-06-04T03:16:02;102309.53;;;10.02;100.00
5996;BME280;3026;53.612;7.278;2023-06-04T03:18:28;102315.13;;;10.00;100.00
5996;BME280;3026;53.612;7.278;2023-06-04T03:20:56;102314.25;;;10.00;100.00
5996;BME280;3026;53.612;7.278;2023-06-04T03:23:23;102318.13;;;9.97;100.00
5996;BME280;3026;53.612;7.278;2023-06-04T03:25:50;102310.09;;;9.96;100.00
5996;BME280;3026;53.612;7.278;2023-06-04T03:28:16;102307.47;;;9.94;100.00
5996;BME280;3026;53.612;7.278;2023-06-04T03:30:45;102311.91;;;9.95;100.00
5996;BME280;3026;53.612;7.278;2023-06-04T03:33:11;102310.19;;;9.94;100.00
5996;BME280;3026;53.612;7.278;2023-06-04T03:35:39;102307.59;;;9.92;100.00
5996;BME280;3026;53.612;7.278;2023-06-04T03:38:06;102312.31;;;9.90;100.00
5996;BME280;3026;53.612;7.278;2023-06-04T03:40:33;102305.16;;;9.89;100.00
5996;BME280;3026;53.612;7.278;2023-06-04T03:43:00;102306.16;;;9.88;100.00
5996;BME280;3026;53.612;7.278;2023-06-04T03:45:29;102307.88;;;9.89;100.00
5996;BME280;3026;53.612;7.278;2023-06-04T03:47:57;102311.59;;;9.88;100.00
5996;BME280;3026;53.612;7.278;2023-06-04T03:50:24;102308.88;;;9.88;100.00
5996;BME280;3026;53.612;7.278;2023-06-04T03:52:51;102307.28;;;9.86;100.00
5996;BME280;3026;53.612;7.278;2023-06-04T03:55:18;102300.97;;;9.85;100.00
5996;BME280;3026;53.612;7.278;2023-06-04T03:57:45;102300.13;;;9.85;100.00
5996;BME280;3026;53.612;7.278;2023-06-04T04:00:13;102305.28;;;9.88;100.00
5996;BME280;3026;53.612;7.278;2023-06-04T04:02:40;102298.97;;;9.87;100.00
5996;BME280;3026;53.612;7.278;2023-06-04T04:05:09;102301.69;;;9.87;100.00
5996;BME280;3026;53.612;7.278;2023-06-04T04:07:36;102305.44;;;9.86;100.00
5996;BME280;3026;53.612;7.278;2023-06-04T04:10:04;102304.16;;;9.90;100.00
5996;BME280;3026;53.612;7.278;2023-06-04T04:12:31;102302.44;;;9.89;100.00
5996;BME280;3026;53.612;7.278;2023-06-04T04:14:58;102303.16;;;9.91;100.00
5996;BME280;3026;53.612;7.278;2023-06-04T04:17:25;102310.19;;;9.94;100.00
5996;BME280;3026;53.612;7.278;2023-06-04T04:19:52;102306.47;;;9.95;100.00
5996;BME280;3026;53.612;7.278;2023-06-04T04:22:20;102296.19;;;9.99;100.00
5996;BME280;3026;53.612;7.278;2023-06-04T04:24:47;102301.38;;;10.02;100.00
5996;BME280;3026;53.612;7.278;2023-06-04T04:27:13;102303.09;;;10.03;100.00
5996;BME280;3026;53.612;7.278;2023-06-04T04:29:41;102303.69;;;10.06;100.00
5996;BME280;3026;53.612;7.278;2023-06-04T04:32:08;102302.56;;;10.09;100.00
5996;BME280;3026;53.612;7.278;2023-06-04T04:34:37;102307.75;;;10.12;100.00
5996;BME280;3026;53.612;7.278;2023-06-04T04:37:04;102297.44;;;10.15;100.00
5996;BME280;3026;53.612;7.278;2023-06-04T04:39:35;102308.69;;;10.22;100.00
5996;BME280;3026;53.612;7.278;2023-06-04T04:42:02;102304.69;;;10.26;100.00
5996;BME280;3026;53.612;7.278;2023-06-04T04:44:29;102311.50;;;10.32;100.00
5996;BME280;3026;53.612;7.278;2023-06-04T04:46:56;102310.94;;;10.38;100.00
5996;BME280;3026;53.612;7.278;2023-06-04T04:49:23;102306.81;;;10.43;100.00
5996;BME280;3026;53.612;7.278;2023-06-04T04:51:51;102313.44;;;10.50;100.00
5996;BME280;3026;53.612;7.278;2023-06-04T04:54:17;102307.44;;;10.57;100.00
5996;BME280;3026;53.612;7.278;2023-06-04T04:56:45;102306.00;;;10.62;100.00
5996;BME280;3026;53.612;7.278;2023-06-04T04:59:12;102308.94;;;10.70;100.00
5996;BME280;3026;53.612;7.278;2023-06-04T05:01:39;102315.56;;;10.77;100.00
5996;BME280;3026;53.612;7.278;2023-06-04T05:04:06;102312.13;;;10.85;100.00
5996;BME280;3026;53.612;7.278;2023-06-04T05:06:32;102307.84;;;10.92;100.00
5996;BME280;3026;53.612;7.278;2023-06-04T05:08:59;102310.75;;;11.00;100.00
5996;BME280;3026;53.612;7.278;2023-06-04T05:11:26;102308.16;;;11.08;100.00
5996;BME280;3026;53.612;7.278;2023-06-04T05:13:54;102317.25;;;11.19;100.00
5996;BME280;3026;53.612;7.278;2023-06-04T05:16:21;102322.88;;;11.27;100.00
5996;BME280;3026;53.612;7.278;2023-06-04T05:18:48;102310.50;;;11.32;100.00
5996;BME280;3026;53.612;7.278;2023-06-04T05:21:17;102322.16;;;11.44;100.00
5996;BME280;3026;53.612;7.278;2023-06-04T05:23:44;102320.31;;;11.54;100.00
5996;BME280;3026;53.612;7.278;2023-06-04T05:26:13;102323.75;;;11.66;100.00
5996;BME280;3026;53.612;7.278;2023-06-04T05:28:40;102308.81;;;11.80;100.00
5996;BME280;3026;53.612;7.278;2023-06-04T05:31:10;102313.13;;;11.92;100.00
5996;BME280;3026;53.612;7.278;2023-06-04T05:33:38;102318.31;;;12.05;100.00
5996;BME280;3026;53.612;7.278;2023-06-04T05:36:05;102310.81;;;12.16;100.00
5996;BME280;3026;53.612;7.278;2023-06-04T05:38:32;102311.63;;;12.26;100.00
5996;BME280;3026;53.612;7.278;2023-06-04T05:41:01;102312.47;;;12.37;100.00
5996;BME280;3026;53.612;7.278;2023-06-04T05:43:27;102304.06;;;12.48;100.00
5996;BME280;3026;53.612;7.278;2023-06-04T05:45:54;102312.81;;;12.61;100.00
5996;BME280;3026;53.612;7.278;2023-06-04T05:48:22;102313.47;;;12.73;100.00
5996;BME280;3026;53.612;7.278;2023-06-04T05:50:49;102315.91;;;12.85;100.00
5996;BME280;3026;53.612;7.278;2023-06-04T05:53:16;102324.78;;;12.97;100.00
5996;BME280;3026;53.612;7.278;2023-06-04T05:55:43;102314.75;;;13.06;100.00
5996;BME280;3026;53.612;7.278;2023-06-04T05:58:10;102316.91;;;13.12;100.00
5996;BME280;3026;53.612;7.278;2023-06-04T06:00:36;102327.66;;;13.23;100.00
5996;BME280;3026;53.612;7.278;2023-06-04T06:03:03;102323.84;;;13.34;100.00
5996;BME280;3026;53.612;7.278;2023-06-04T06:05:33;102327.50;;;13.42;100.00
5996;BME280;3026;53.612;7.278;2023-06-04T06:08:00;102323.16;;;13.50;100.00
5996;BME280;3026;53.612;7.278;2023-06-04T06:10:27;102327.69;;;13.59;100.00
5996;BME280;3026;53.612;7.278;2023-06-04T06:12:55;102322.16;;;13.68;100.00
5996;BME280;3026;53.612;7.278;2023-06-04T06:15:21;102323.22;;;13.76;100.00
5996;BME280;3026;53.612;7.278;2023-06-04T06:17:49;102334.44;;;13.82;100.00
5996;BME280;3026;53.612;7.278;2023-06-04T06:20:15;102328.63;;;13.85;100.00
5996;BME280;3026;53.612;7.278;2023-06-04T06:22:44;102329.72;;;13.92;100.00
5996;BME280;3026;53.612;7.278;2023-06-04T06:25:11;102339.03;;;13.99;100.00
5996;BME280;3026;53.612;7.278;2023-06-04T06:27:39;102330.16;;;14.06;100.00
5996;BME280;3026;53.612;7.278;2023-06-04T06:30:07;102328.97;;;14.08;100.00
5996;BME280;3026;53.612;7.278;2023-06-04T06:32:34;102339.53;;;14.21;100.00
5996;BME280;3026;53.612;7.278;2023-06-04T06:35:01;102334.81;;;14.31;100.00
5996;BME280;3026;53.612;7.278;2023-06-04T06:37:28;102333.16;;;14.38;100.00
5996;BME280;3026;53.612;7.278;2023-06-04T06:39:56;102347.66;;;14.48;100.00
5996;BME280;3026;53.612;7.278;2023-06-04T06:42:23;102341.19;;;14.57;100.00
5996;BME280;3026;53.612;7.278;2023-06-04T06:44:50;102334.72;;;14.67;100.00
5996;BME280;3026;53.612;7.278;2023-06-04T06:47:17;102334.25;;;14.71;100.00
5996;BME280;3026;53.612;7.278;2023-06-04T06:49:44;102342.34;;;14.81;100.00
5996;BME280;3026;53.612;7.278;2023-06-04T06:52:10;102347.19;;;14.87;100.00
5996;BME280;3026;53.612;7.278;2023-06-04T06:54:37;102344.50;;;14.95;100.00
5996;BME280;3026;53.612;7.278;2023-06-04T06:57:05;102343.47;;;15.04;100.00
5996;BME280;3026;53.612;7.278;2023-06-04T06:59:34;102360.69;;;15.14;100.00
5996;BME280;3026;53.612;7.278;2023-06-04T07:02:01;102360.38;;;15.17;100.00
5996;BME280;3026;53.612;7.278;2023-06-04T07:04:28;102355.59;;;15.28;100.00
5996;BME280;3026;53.612;7.278;2023-06-04T07:06:55;102359.06;;;15.30;100.00
5996;BME280;3026;53.612;7.278;2023-06-04T07:09:22;102360.25;;;15.35;100.00
5996;BME280;3026;53.612;7.278;2023-06-04T07:11:49;102368.16;;;15.38;100.00
5996;BME280;3026;53.612;7.278;2023-06-04T07:14:17;102368.03;;;15.40;100.00
5996;BME280;3026;53.612;7.278;2023-06-04T07:16:43;102370.78;;;15.56;100.00
5996;BME280;3026;53.612;7.278;2023-06-04T07:19:10;102371.19;;;15.69;100.00
5996;BME280;3026;53.612;7.278;2023-06-04T07:21:37;102374.31;;;15.83;100.00
5996;BME280;3026;53.612;7.278;2023-06-04T07:24:04;102371.91;;;15.96;100.00
5996;BME280;3026;53.612;7.278;2023-06-04T07:26:32;102377.59;;;16.02;100.00
5996;BME280;3026;53.612;7.278;2023-06-04T07:28:58;102381.53;;;16.08;100.00
5996;BME280;3026;53.612;7.278;2023-06-04T07:31:27;102373.81;;;16.20;100.00
5996;BME280;3026;53.612;7.278;2023-06-04T07:33:53;102384.81;;;16.36;100.00
5996;BME280;3026;53.612;7.278;2023-06-04T07:36:20;102381.53;;;16.41;100.00
5996;BME280;3026;53.612;7.278;2023-06-04T07:38:48;102376.72;;;16.51;100.00
5996;BME280;3026;53.612;7.278;2023-06-04T07:41:15;102373.59;;;16.62;100.00
5996;BME280;3026;53.612;7.278;2023-06-04T07:43:42;102372.91;;;16.76;100.00
5996;BME280;3026;53.612;7.278;2023-06-04T07:46:09;102380.47;;;16.82;100.00
5996;BME280;3026;53.612;7.278;2023-06-04T07:48:38;102375.94;;;16.89;100.00
5996;BME280;3026;53.612;7.278;2023-06-04T07:51:04;102376.78;;;16.98;100.00
5996;BME280;3026;53.612;7.278;2023-06-04T07:53:31;102372.44;;;17.12;100.00
5996;BME280;3026;53.612;7.278;2023-06-04T07:55:58;102371.72;;;17.18;100.00
5996;BME280;3026;53.612;7.278;2023-06-04T07:58:25;102368.75;;;17.28;100.00
5996;BME280;3026;53.612;7.278;2023-06-04T08:00:53;102375.78;;;17.38;100.00
5996;BME280;3026;53.612;7.278;2023-06-04T08:03:19;102379.88;;;17.42;100.00
5996;BME280;3026;53.612;7.278;2023-06-04T08:05:48;102383.97;;;17.46;100.00
5996;BME280;3026;53.612;7.278;2023-06-04T08:08:15;102375.66;;;17.55;100.00
5996;BME280;3026;53.612;7.278;2023-06-04T08:10:42;102382.47;;;17.75;100.00
5996;BME280;3026;53.612;7.278;2023-06-04T08:13:09;102383.44;;;17.82;100.00
5996;BME280;3026;53.612;7.278;2023-06-04T08:15:35;102384.44;;;17.89;100.00
5996;BME280;3026;53.612;7.278;2023-06-04T08:18:02;102397.19;;;17.90;100.00
5996;BME280;3026;53.612;7.278;2023-06-04T08:20:29;102394.75;;;17.95;100.00
5996;BME280;3026;53.612;7.278;2023-06-04T08:22:57;102395.25;;;17.99;100.00
5996;BME280;3026;53.612;7.278;2023-06-04T08:25:24;102400.56;;;18.00;100.00
5996;BME280;3026;53.612;7.278;2023-06-04T08:27:51;102397.44;;;18.03;100.00
5996;BME280;3026;53.612;7.278;2023-06-04T08:30:18;102395.72;;;18.02;100.00
5996;BME280;3026;53.612;7.278;2023-06-04T08:32:45;102396.72;;;17.87;100.00
5996;BME280;3026;53.612;7.278;2023-06-04T08:35:11;102398.53;;;17.94;100.00
5996;BME280;3026;53.612;7.278;2023-06-04T08:37:39;102398.81;;;18.07;100.00
5996;BME280;3026;53.612;7.278;2023-06-04T08:40:09;102406.72;;;18.11;100.00
5996;BME280;3026;53.612;7.278;2023-06-04T08:42:38;102405.91;;;18.25;100.00
5996;BME280;3026;53.612;7.278;2023-06-04T08:45:10;102412.63;;;18.45;100.00
5996;BME280;3026;53.612;7.278;2023-06-04T08:47:39;102401.78;;;18.58;100.00
5996;BME280;3026;53.612;7.278;2023-06-04T08:50:09;102401.41;;;18.61;100.00
5996;BME280;3026;53.612;7.278;2023-06-04T08:52:38;102410.75;;;18.60;100.00
5996;BME280;3026;53.612;7.278;2023-06-04T08:55:08;102411.75;;;18.68;100.00
5996;BME280;3026;53.612;7.278;2023-06-04T08:57:35;102419.09;;;18.75;100.00
5996;BME280;3026;53.612;7.278;2023-06-04T09:00:02;102408.81;;;18.84;100.00
5996;BME280;3026;53.612;7.278;2023-06-04T09:02:30;102411.41;;;19.00;100.00
5996;BME280;3026;53.612;7.278;2023-06-04T09:04:57;102417.53;;;19.10;100.00
5996;BME280;3026;53.612;7.278;2023-06-04T09:07:24;102418.75;;;18.93;100.00
5996;BME280;3026;53.612;7.278;2023-06-04T09:09:51;102416.72;;;18.87;100.00
5996;BME280;3026;53.612;7.278;2023-06-04T09:12:23;102409.00;;;18.97;100.00
5996;BME280;3026;53.612;7.278;2023-06-04T09:14:50;102406.25;;;19.27;100.00
5996;BME280;3026;53.612;7.278;2023-06-04T09:17:21;102410.47;;;19.22;100.00
5996;BME280;3026;53.612;7.278;2023-06-04T09:19:48;102405.47;;;19.33;100.00
5996;BME280;3026;53.612;7.278;2023-06-04T09:22:15;102405.66;;;19.46;100.00
5996;BME280;3026;53.612;7.278;2023-06-04T09:24:43;102413.50;;;19.57;100.00
5996;BME280;3026;53.612;7.278;2023-06-04T09:27:13;102416.78;;;19.67;100.00
5996;BME280;3026;53.612;7.278;2023-06-04T09:29:48;102413.66;;;19.70;100.00
5996;BME280;3026;53.612;7.278;2023-06-04T09:32:20;102410.59;;;19.65;100.00
5996;BME280;3026;53.612;7.278;2023-06-04T09:34:47;102414.00;;;19.67;100.00
5996;BME280;3026;53.612;7.278;2023-06-04T09:37:14;102408.22;;;19.62;100.00
5996;BME280;3026;53.612;7.278;2023-06-04T09:39:42;102417.47;;;19.69;100.00
5996;BME280;3026;53.612;7.278;2023-06-04T09:42:09;102429.84;;;19.73;100.00
5996;BME280;3026;53.612;7.278;2023-06-04T09:44:44;102413.09;;;19.60;100.00
5996;BME280;3026;53.612;7.278;2023-06-04T09:47:11;102421.47;;;19.67;100.00
5996;BME280;3026;53.612;7.278;2023-06-04T09:49:40;102424.72;;;19.70;100.00
5996;BME280;3026;53.612;7.278;2023-06-04T09:52:07;102419.19;;;19.70;100.00
5996;BME280;3026;53.612;7.278;2023-06-04T09:54:36;102422.66;;;19.94;100.00
5996;BME280;3026;53.612;7.278;2023-06-04T09:57:04;102429.59;;;19.90;100.00
5996;BME280;3026;53.612;7.278;2023-06-04T09:59:36;102421.59;;;19.95;100.00
5996;BME280;3026;53.612;7.278;2023-06-04T10:02:07;102422.00;;;19.92;100.00
5996;BME280;3026;53.612;7.278;2023-06-04T10:04:35;102415.25;;;20.01;100.00
5996;BME280;3026;53.612;7.278;2023-06-04T10:07:04;102424.50;;;20.08;100.00
5996;BME280;3026;53.612;7.278;2023-06-04T10:09:32;102433.56;;;20.02;100.00
5996;BME280;3026;53.612;7.278;2023-06-04T10:12:01;102428.50;;;19.84;100.00
5996;BME280;3026;53.612;7.278;2023-06-04T10:14:35;102437.03;;;20.04;100.00
5996;BME280;3026;53.612;7.278;2023-06-04T10:17:09;102430.81;;;20.02;100.00
5996;BME280;3026;53.612;7.278;2023-06-04T10:19:38;102424.75;;;20.13;100.00
5996;BME280;3026;53.612;7.278;2023-06-04T10:22:10;102430.44;;;20.26;100.00
5996;BME280;3026;53.612;7.278;2023-06-04T10:24:38;102427.28;;;20.51;100.00
5996;BME280;3026;53.612;7.278;2023-06-04T10:27:06;102430.69;;;20.53;100.00
5996;BME280;3026;53.612;7.278;2023-06-04T10:29:36;102434.78;;;20.57;100.00
5996;BME280;3026;53.612;7.278;2023-06-04T10:32:04;102432.00;;;20.57;100.00
5996;BME280;3026;53.612;7.278;2023-06-04T10:34:32;102434.38;;;20.38;100.00
5996;BME280;3026;53.612;7.278;2023-06-04T10:36:59;102432.81;;;20.51;100.00
5996;BME280;3026;53.612;7.278;2023-06-04T10:39:26;102440.97;;;20.59;100.00
5996;BME280;3026;53.612;7.278;2023-06-04T10:41:59;102446.47;;;20.52;100.00
5996;BME280;3026;53.612;7.278;2023-06-04T10:44:25;102439.19;;;20.30;100.00
5996;BME280;3026;53.612;7.278;2023-06-04T10:46:52;102445.72;;;20.22;100.00
5996;BME280;3026;53.612;7.278;2023-06-04T10:49:26;102448.09;;;20.25;100.00
5996;BME280;3026;53.612;7.278;2023-06-04T10:51:55;102449.47;;;20.36;100.00
5996;BME280;3026;53.612;7.278;2023-06-04T10:54:23;102449.94;;;20.18;100.00
5996;BME280;3026;53.612;7.278;2023-06-04T10:56:52;102452.84;;;20.10;100.00
5996;BME280;3026;53.612;7.278;2023-06-04T10:59:19;102455.09;;;20.21;100.00
5996;BME280;3026;53.612;7.278;2023-06-04T11:01:46;102450.94;;;20.32;100.00
5996;BME280;3026;53.612;7.278;2023-06-04T11:04:20;102459.38;;;20.24;100.00
5996;BME280;3026;53.612;7.278;2023-06-04T11:06:47;102457.31;;;20.11;99.79
5996;BME280;3026;53.612;7.278;2023-06-04T11:09:16;102455.34;;;20.05;99.82
5996;BME280;3026;53.612;7.278;2023-06-04T11:11:44;102458.31;;;20.03;99.66
5996;BME280;3026;53.612;7.278;2023-06-04T11:14:11;102444.41;;;20.18;100.00
5996;BME280;3026;53.612;7.278;2023-06-04T11:16:38;102452.50;;;20.20;100.00
5996;BME280;3026;53.612;7.278;2023-06-04T11:19:05;102439.94;;;20.17;100.00
5996;BME280;3026;53.612;7.278;2023-06-04T11:21:34;102442.69;;;20.38;100.00
5996;BME280;3026;53.612;7.278;2023-06-04T11:24:03;102444.69;;;20.45;98.90
5996;BME280;3026;53.612;7.278;2023-06-04T11:26:31;102440.50;;;20.34;100.00
5996;BME280;3026;53.612;7.278;2023-06-04T11:29:00;102447.06;;;20.48;100.00
5996;BME280;3026;53.612;7.278;2023-06-04T11:31:27;102442.56;;;20.47;100.00
5996;BME280;3026;53.612;7.278;2023-06-04T11:33:53;102439.16;;;20.45;100.00
5996;BME280;3026;53.612;7.278;2023-06-04T11:36:24;102444.13;;;20.34;99.74
5996;BME280;3026;53.612;7.278;2023-06-04T11:38:56;102444.69;;;20.45;98.46
5996;BME280;3026;53.612;7.278;2023-06-04T11:41:23;102442.94;;;20.22;97.61
5996;BME280;3026;53.612;7.278;2023-06-04T11:43:52;102438.66;;;20.20;98.97
5996;BME280;3026;53.612;7.278;2023-06-04T11:46:20;102450.31;;;20.36;98.13
5996;BME280;3026;53.612;7.278;2023-06-04T11:48:47;102441.53;;;20.26;97.73
5996;BME280;3026;53.612;7.278;2023-06-04T11:51:14;102434.38;;;20.17;97.87
5996;BME280;3026;53.612;7.278;2023-06-04T11:53:41;102436.75;;;20.20;98.34
5996;BME280;3026;53.612;7.278;2023-06-04T11:56:08;102434.38;;;20.38;98.51
5996;BME280;3026;53.612;7.278;2023-06-04T11:58:36;102420.03;;;20.50;97.55
5996;BME280;3026;53.612;7.278;2023-06-04T12:01:05;102437.53;;;20.57;97.67
5996;BME280;3026;53.612;7.278;2023-06-04T12:03:34;102435.06;;;20.62;96.69
5996;BME280;3026;53.612;7.278;2023-06-04T12:06:10;102442.81;;;20.30;95.53
5996;BME280;3026;53.612;7.278;2023-06-04T12:08:47;102443.75;;;20.16;96.59
5996;BME280;3026;53.612;7.278;2023-06-04T12:11:28;102442.28;;;20.20;96.54
5996;BME280;3026;53.612;7.278;2023-06-04T12:13:57;102449.66;;;20.13;96.98
5996;BME280;3026;53.612;7.278;2023-06-04T12:16:26;102444.28;;;20.05;97.87
5996;BME280;3026;53.612;7.278;2023-06-04T12:19:04;102448.00;;;19.97;97.56
5996;BME280;3026;53.612;7.278;2023-06-04T12:21:31;102453.09;;;19.94;97.75
5996;BME280;3026;53.612;7.278;2023-06-04T12:24:06;102446.22;;;19.90;97.04
5996;BME280;3026;53.612;7.278;2023-06-04T12:26:34;102442.03;;;19.94;96.42
5996;BME280;3026;53.612;7.278;2023-06-04T12:29:07;102437.31;;;19.73;95.26
5996;BME280;3026;53.612;7.278;2023-06-04T12:31:37;102432.94;;;19.49;95.71
5996;BME280;3026;53.612;7.278;2023-06-04T12:34:03;102433.31;;;19.46;95.94
5996;BME280;3026;53.612;7.278;2023-06-04T12:36:31;102433.38;;;19.52;96.80
5996;BME280;3026;53.612;7.278;2023-06-04T12:39:01;102430.63;;;19.67;96.25
5996;BME280;3026;53.612;7.278;2023-06-04T12:41:29;102428.53;;;19.69;96.63
5996;BME280;3026;53.612;7.278;2023-06-04T12:43:56;102429.84;;;19.73;96.33
5996;BME280;3026;53.612;7.278;2023-06-04T12:46:23;102436.53;;;19.64;95.69
5996;BME280;3026;53.612;7.278;2023-06-04T12:48:52;102428.44;;;19.48;95.65
5996;BME280;3026;53.612;7.278;2023-06-04T12:51:20;102433.69;;;19.43;96.53
5996;BME280;3026;53.612;7.278;2023-06-04T12:53:47;102427.28;;;19.42;96.74
5996;BME280;3026;53.612;7.278;2023-06-04T12:56:14;102434.03;;;19.54;97.45
5996;BME280;3026;53.612;7.278;2023-06-04T12:58:42;102434.44;;;19.66;96.98
5996;BME280;3026;53.612;7.278;2023-06-04T13:01:09;102426.28;;;19.58;96.52
5996;BME280;3026;53.612;7.278;2023-06-04T13:03:37;102427.31;;;19.57;96.42
5996;BME280;3026;53.612;7.278;2023-06-04T13:06:05;102437.03;;;19.38;95.44
5996;BME280;3026;53.612;7.278;2023-06-04T13:08:32;102436.56;;;19.35;96.14